sensor_id;sensor_type;location;lat;lon;timestamp;P1;durP1;ratioP1;P2;durP2;ratioP2
64405;SDS011;50730;48.628;8.994;2023-09-18T00:00:00;6.07;;;2.50;;
64405;SDS011;50730;48.628;8.994;2023-09-18T00:02:29;4.40;;;2.53;;
64405;SDS011;50730;48.628;8.994;2023-09-18T00:04:56;3.22;;;2.28;;
64405;SDS011;50730;48.628;8.994;2023-09-18T00:07:24;5.13;;;2.40;;
64405;SDS011;50730;48.628;8.994;2023-09-18T00:09:51;4.45;;;2.30;;
64405;SDS011;50730;48.628;8.994;2023-09-18T00:12:19;5.05;;;2.33;;
64405;SDS011;50730;48.628;8.994;2023-09-18T00:14:47;4.55;;;2.55;;
64405;SDS011;50730;48.628;8.994;2023-09-18T00:17:15;3.53;;;2.20;;
64405;SDS011;50730;48.628;8.994;2023-09-18T00:19:44;4.22;;;2.22;;
64405;SDS011;50730;48.628;8.994;2023-09-18T00:22:11;11.50;;;3.28;;
64405;SDS011;50730;48.628;8.994;2023-09-18T00:24:38;5.38;;;2.40;;
64405;SDS011;50730;48.628;8.994;2023-09-18T00:27:05;6.00;;;2.88;;
64405;SDS011;50730;48.628;8.994;2023-09-18T00:29:34;6.13;;;2.70;;
64405;SDS011;50730;48.628;8.994;2023-09-18T00:35:17;6.93;;;2.70;;
64405;SDS011;50730;48.628;8.994;2023-09-18T00:37:44;4.60;;;2.42;;
64405;SDS011;50730;48.628;8.994;2023-09-18T00:40:12;6.22;;;2.55;;
64405;SDS011;50730;48.628;8.994;2023-09-18T00:42:39;6.30;;;2.40;;
64405;SDS011;50730;48.628;8.994;2023-09-18T00:45:08;8.82;;;2.85;;
64405;SDS011;50730;48.628;8.994;2023-09-18T00:47:35;8.20;;;2.63;;
64405;SDS011;50730;48.628;8.994;2023-09-18T00:50:03;7.50;;;2.60;;
64405;SDS011;50730;48.628;8.994;2023-09-18T00:52:31;4.68;;;2.72;;
64405;SDS011;50730;48.628;8.994;2023-09-18T00:54:58;4.65;;;2.70;;
64405;SDS011;50730;48.628;8.994;2023-09-18T00:57:26;4.97;;;2.88;;
64405;SDS011;50730;48.628;8.994;2023-09-18T00:59:54;4.05;;;2.60;;
64405;SDS011;50730;48.628;8.994;2023-09-18T01:02:22;5.53;;;2.75;;
64405;SDS011;50730;48.628;8.994;2023-09-18T01:04:50;5.00;;;2.47;;
64405;SDS011;50730;48.628;8.994;2023-09-18T01:07:17;6.68;;;2.60;;
64405;SDS011;50730;48.628;8.994;2023-09-18T01:09:44;3.78;;;2.50;;
64405;SDS011;50730;48.628;8.994;2023-09-18T01:12:13;5.57;;;2.60;;
64405;SDS011;50730;48.628;8.994;2023-09-18T01:14:47;5.25;;;2.42;;
64405;SDS011;50730;48.628;8.994;2023-09-18T01:17:16;4.53;;;2.50;;
64405;SDS011;50730;48.628;8.994;2023-09-18T01:19:51;4.55;;;2.50;;
64405;SDS011;50730;48.628;8.994;2023-09-18T01:22:19;3.50;;;2.30;;
64405;SDS011;50730;48.628;8.994;2023-09-18T01:24:48;3.92;;;2.38;;
64405;SDS011;50730;48.628;8.994;2023-09-18T01:27:16;7.32;;;2.47;;
64405;SDS011;50730;48.628;8.994;2023-09-18T01:29:43;5.38;;;2.03;;
64405;SDS011;50730;48.628;8.994;2023-09-18T01:32:11;5.95;;;2.50;;
64405;SDS011;50730;48.628;8.994;2023-09-18T01:34:39;5.13;;;2.00;;
64405;SDS011;50730;48.628;8.994;2023-09-18T01:37:08;3.50;;;1.65;;
64405;SDS011;50730;48.628;8.994;2023-09-18T01:39:35;3.80;;;1.90;;
64405;SDS011;50730;48.628;8.994;2023-09-18T01:42:03;6.15;;;1.48;;
64405;SDS011;50730;48.628;8.994;2023-09-18T01:44:31;4.10;;;1.60;;
64405;SDS011;50730;48.628;8.994;2023-09-18T01:46:58;33.20;;;3.72;;
64405;SDS011;50730;48.628;8.994;2023-09-18T01:49:26;20.25;;;2.38;;
64405;SDS011;50730;48.628;8.994;2023-09-18T05:53:55;5.68;;;1.63;;
64405;SDS011;50730;48.628;8.994;2023-09-18T05:56:22;5.65;;;1.27;;
64405;SDS011;50730;48.628;8.994;2023-09-18T05:58:50;4.50;;;1.42;;
64405;SDS011;50730;48.628;8.994;2023-09-18T06:01:17;4.63;;;1.35;;
64405;SDS011;50730;48.628;8.994;2023-09-18T06:09:53;5.85;;;1.50;;
64405;SDS011;50730;48.628;8.994;2023-09-18T06:12:20;8.32;;;2.00;;
64405;SDS011;50730;48.628;8.994;2023-09-18T06:14:48;7.90;;;2.15;;
64405;SDS011;50730;48.628;8.994;2023-09-18T06:17:15;8.60;;;1.92;;
64405;SDS011;50730;48.628;8.994;2023-09-18T06:19:42;4.50;;;1.23;;
64405;SDS011;50730;48.628;8.994;2023-09-18T06:22:10;5.43;;;1.42;;
64405;SDS011;50730;48.628;8.994;2023-09-18T06:24:37;5.63;;;1.92;;
64405;SDS011;50730;48.628;8.994;2023-09-18T06:27:06;6.93;;;1.55;;
64405;SDS011;50730;48.628;8.994;2023-09-18T06:29:33;3.70;;;1.75;;
64405;SDS011;50730;48.628;8.994;2023-09-18T06:32:03;8.25;;;1.52;;
64405;SDS011;50730;48.628;8.994;2023-09-18T06:34:31;4.47;;;1.30;;
64405;SDS011;50730;48.628;8.994;2023-09-18T06:36:58;5.45;;;1.30;;
64405;SDS011;50730;48.628;8.994;2023-09-18T06:39:25;5.68;;;1.75;;
64405;SDS011;50730;48.628;8.994;2023-09-18T06:41:52;6.47;;;1.42;;
64405;SDS011;50730;48.628;8.994;2023-09-18T06:44:21;6.53;;;1.58;;
64405;SDS011;50730;48.628;8.994;2023-09-18T06:46:48;7.45;;;1.48;;
64405;SDS011;50730;48.628;8.994;2023-09-18T06:49:15;8.35;;;1.65;;
64405;SDS011;50730;48.628;8.994;2023-09-18T06:51:43;8.38;;;1.65;;
64405;SDS011;50730;48.628;8.994;2023-09-18T06:54:10;5.60;;;1.75;;
64405;SDS011;50730;48.628;8.994;2023-09-18T06:56:37;6.03;;;1.30;;
64405;SDS011;50730;48.628;8.994;2023-09-18T06:59:04;6.95;;;1.50;;
64405;SDS011;50730;48.628;8.994;2023-09-18T07:01:32;6.82;;;1.55;;
64405;SDS011;50730;48.628;8.994;2023-09-18T07:04:00;3.72;;;1.20;;
64405;SDS011;50730;48.628;8.994;2023-09-18T07:06:29;5.78;;;1.60;;
64405;SDS011;50730;48.628;8.994;2023-09-18T07:08:56;7.10;;;1.40;;
64405;SDS011;50730;48.628;8.994;2023-09-18T07:11:24;4.40;;;1.20;;
64405;SDS011;50730;48.628;8.994;2023-09-18T07:13:51;7.13;;;1.27;;
64405;SDS011;50730;48.628;8.994;2023-09-18T07:16:19;5.85;;;1.02;;
64405;SDS011;50730;48.628;8.994;2023-09-18T07:18:47;5.60;;;1.10;;
64405;SDS011;50730;48.628;8.994;2023-09-18T07:21:14;2.80;;;1.00;;
64405;SDS011;50730;48.628;8.994;2023-09-18T07:23:41;5.70;;;0.95;;
64405;SDS011;50730;48.628;8.994;2023-09-18T07:26:10;7.30;;;1.45;;
64405;SDS011;50730;48.628;8.994;2023-09-18T07:28:37;6.65;;;1.50;;
64405;SDS011;50730;48.628;8.994;2023-09-18T07:31:05;6.35;;;1.50;;
64405;SDS011;50730;48.628;8.994;2023-09-18T07:33:34;4.45;;;1.00;;
64405;SDS011;50730;48.628;8.994;2023-09-18T07:36:02;2.75;;;0.93;;
64405;SDS011;50730;48.628;8.994;2023-09-18T07:38:29;4.75;;;0.90;;
64405;SDS011;50730;48.628;8.994;2023-09-18T07:40:57;3.95;;;1.10;;
64405;SDS011;50730;48.628;8.994;2023-09-18T07:43:24;3.90;;;1.00;;
64405;SDS011;50730;48.628;8.994;2023-09-18T07:45:52;5.88;;;1.38;;
64405;SDS011;50730;48.628;8.994;2023-09-18T07:48:19;3.17;;;1.10;;
64405;SDS011;50730;48.628;8.994;2023-09-18T07:50:46;5.53;;;1.27;;
64405;SDS011;50730;48.628;8.994;2023-09-18T07:53:16;5.45;;;0.70;;
64405;SDS011;50730;48.628;8.994;2023-09-18T07:55:43;7.47;;;1.25;;
64405;SDS011;50730;48.628;8.994;2023-09-18T07:58:10;3.22;;;1.00;;
64405;SDS011;50730;48.628;8.994;2023-09-18T08:00:38;6.32;;;0.95;;
64405;SDS011;50730;48.628;8.994;2023-09-18T08:03:05;3.00;;;0.90;;
64405;SDS011;50730;48.628;8.994;2023-09-18T08:05:32;1.50;;;0.57;;
64405;SDS011;50730;48.628;8.994;2023-09-18T08:07:59;3.25;;;1.30;;
64405;SDS011;50730;48.628;8.994;2023-09-18T08:10:31;8.75;;;1.20;;
64405;SDS011;50730;48.628;8.994;2023-09-18T08:12:58;3.15;;;0.73;;
64405;SDS011;50730;48.628;8.994;2023-09-18T08:15:25;5.20;;;0.90;;
64405;SDS011;50730;48.628;8.994;2023-09-18T08:17:54;4.03;;;0.70;;
64405;SDS011;50730;48.628;8.994;2023-09-18T08:20:21;4.38;;;1.20;;
64405;SDS011;50730;48.628;8.994;2023-09-18T08:22:48;4.88;;;1.02;;
64405;SDS011;50730;48.628;8.994;2023-09-18T08:25:15;5.97;;;0.85;;
64405;SDS011;50730;48.628;8.994;2023-09-18T08:27:44;1.73;;;0.90;;
64405;SDS011;50730;48.628;8.994;2023-09-18T08:30:13;3.47;;;0.70;;
64405;SDS011;50730;48.628;8.994;2023-09-18T08:32:41;4.20;;;1.10;;
64405;SDS011;50730;48.628;8.994;2023-09-18T08:35:08;5.35;;;0.73;;
64405;SDS011;50730;48.628;8.994;2023-09-18T08:37:36;4.45;;;1.10;;
64405;SDS011;50730;48.628;8.994;2023-09-18T08:40:03;4.75;;;1.00;;
64405;SDS011;50730;48.628;8.994;2023-09-18T08:42:35;4.32;;;1.05;;
64405;SDS011;50730;48.628;8.994;2023-09-18T08:45:04;1.60;;;0.90;;
64405;SDS011;50730;48.628;8.994;2023-09-18T08:47:35;3.03;;;1.20;;
64405;SDS011;50730;48.628;8.994;2023-09-18T08:50:04;4.20;;;1.13;;
64405;SDS011;50730;48.628;8.994;2023-09-18T08:52:31;4.90;;;1.20;;
64405;SDS011;50730;48.628;8.994;2023-09-18T08:54:59;5.97;;;1.55;;
64405;SDS011;50730;48.628;8.994;2023-09-18T08:57:27;2.53;;;1.02;;
64405;SDS011;50730;48.628;8.994;2023-09-18T08:59:55;5.93;;;1.15;;
64405;SDS011;50730;48.628;8.994;2023-09-18T09:02:24;3.92;;;1.10;;
64405;SDS011;50730;48.628;8.994;2023-09-18T09:04:52;5.70;;;1.63;;
64405;SDS011;50730;48.628;8.994;2023-09-18T09:07:19;6.57;;;1.33;;
64405;SDS011;50730;48.628;8.994;2023-09-18T09:09:46;2.65;;;1.05;;
64405;SDS011;50730;48.628;8.994;2023-09-18T09:12:13;2.70;;;1.05;;
64405;SDS011;50730;48.628;8.994;2023-09-18T09:14:41;4.43;;;1.30;;
64405;SDS011;50730;48.628;8.994;2023-09-18T09:17:17;4.38;;;1.40;;
64405;SDS011;50730;48.628;8.994;2023-09-18T09:19:46;2.70;;;1.02;;
64405;SDS011;50730;48.628;8.994;2023-09-18T09:22:18;3.10;;;1.10;;
64405;SDS011;50730;48.628;8.994;2023-09-18T09:24:45;3.30;;;1.45;;
64405;SDS011;50730;48.628;8.994;2023-09-18T09:27:12;4.57;;;0.95;;
64405;SDS011;50730;48.628;8.994;2023-09-18T09:29:40;6.72;;;1.25;;
64405;SDS011;50730;48.628;8.994;2023-09-18T09:32:12;4.63;;;1.30;;
64405;SDS011;50730;48.628;8.994;2023-09-18T09:34:41;4.28;;;1.35;;
64405;SDS011;50730;48.628;8.994;2023-09-18T09:37:09;4.20;;;1.20;;
64405;SDS011;50730;48.628;8.994;2023-09-18T09:39:46;2.28;;;1.10;;
64405;SDS011;50730;48.628;8.994;2023-09-18T09:42:14;4.50;;;1.20;;
64405;SDS011;50730;48.628;8.994;2023-09-18T09:44:43;6.68;;;1.83;;
64405;SDS011;50730;48.628;8.994;2023-09-18T09:47:12;6.20;;;1.33;;
64405;SDS011;50730;48.628;8.994;2023-09-18T09:49:49;5.97;;;1.30;;
64405;SDS011;50730;48.628;8.994;2023-09-18T09:52:20;4.85;;;1.13;;
64405;SDS011;50730;48.628;8.994;2023-09-18T09:54:47;8.10;;;1.45;;
64405;SDS011;50730;48.628;8.994;2023-09-18T09:57:14;2.28;;;1.27;;
64405;SDS011;50730;48.628;8.994;2023-09-18T09:59:42;3.03;;;1.40;;
64405;SDS011;50730;48.628;8.994;2023-09-18T10:02:09;6.90;;;1.60;;
64405;SDS011;50730;48.628;8.994;2023-09-18T10:04:39;3.38;;;1.08;;
64405;SDS011;50730;48.628;8.994;2023-09-18T10:07:08;4.35;;;1.15;;
64405;SDS011;50730;48.628;8.994;2023-09-18T10:09:39;3.17;;;1.10;;
64405;SDS011;50730;48.628;8.994;2023-09-18T10:12:10;2.42;;;1.15;;
64405;SDS011;50730;48.628;8.994;2023-09-18T10:14:37;4.97;;;1.27;;
64405;SDS011;50730;48.628;8.994;2023-09-18T10:17:09;3.75;;;1.30;;
64405;SDS011;50730;48.628;8.994;2023-09-18T10:19:39;4.65;;;1.35;;
64405;SDS011;50730;48.628;8.994;2023-09-18T10:22:09;4.72;;;1.30;;
64405;SDS011;50730;48.628;8.994;2023-09-18T10:24:39;3.83;;;1.30;;
64405;SDS011;50730;48.628;8.994;2023-09-18T10:27:07;5.22;;;1.50;;
64405;SDS011;50730;48.628;8.994;2023-09-18T10:29:36;3.47;;;1.50;;
64405;SDS011;50730;48.628;8.994;2023-09-18T10:32:04;3.35;;;1.40;;
64405;SDS011;50730;48.628;8.994;2023-09-18T10:34:32;2.42;;;1.40;;
64405;SDS011;50730;48.628;8.994;2023-09-18T10:37:01;4.85;;;1.80;;
64405;SDS011;50730;48.628;8.994;2023-09-18T10:39:31;5.80;;;2.10;;
64405;SDS011;50730;48.628;8.994;2023-09-18T10:42:02;6.63;;;1.52;;
64405;SDS011;50730;48.628;8.994;2023-09-18T10:44:31;3.28;;;1.40;;
64405;SDS011;50730;48.628;8.994;2023-09-18T10:46:59;2.78;;;1.17;;
64405;SDS011;50730;48.628;8.994;2023-09-18T10:49:28;4.43;;;1.23;;
64405;SDS011;50730;48.628;8.994;2023-09-18T10:51:55;6.10;;;1.48;;
64405;SDS011;50730;48.628;8.994;2023-09-18T10:54:24;2.97;;;1.20;;
64405;SDS011;50730;48.628;8.994;2023-09-18T10:56:51;3.40;;;1.38;;
64405;SDS011;50730;48.628;8.994;2023-09-18T10:59:20;1.98;;;0.98;;
64405;SDS011;50730;48.628;8.994;2023-09-18T11:01:48;2.17;;;1.08;;
64405;SDS011;50730;48.628;8.994;2023-09-18T11:04:17;3.30;;;1.10;;
64405;SDS011;50730;48.628;8.994;2023-09-18T11:07:01;2.83;;;0.90;;
64405;SDS011;50730;48.628;8.994;2023-09-18T11:09:30;3.22;;;1.20;;
64405;SDS011;50730;48.628;8.994;2023-09-18T11:12:02;1.25;;;0.73;;
64405;SDS011;50730;48.628;8.994;2023-09-18T11:14:42;2.53;;;1.00;;
64405;SDS011;50730;48.628;8.994;2023-09-18T11:20:01;2.88;;;0.90;;
64405;SDS011;50730;48.628;8.994;2023-09-18T11:22:30;2.30;;;1.08;;
64405;SDS011;50730;48.628;8.994;2023-09-18T11:27:52;3.25;;;1.10;;
64405;SDS011;50730;48.628;8.994;2023-09-18T11:30:22;1.52;;;0.82;;
64405;SDS011;50730;48.628;8.994;2023-09-18T11:32:49;3.33;;;1.10;;
64405;SDS011;50730;48.628;8.994;2023-09-18T11:35:17;4.28;;;0.77;;
64405;SDS011;50730;48.628;8.994;2023-09-18T11:37:44;3.55;;;0.80;;
64405;SDS011;50730;48.628;8.994;2023-09-18T11:40:28;1.20;;;0.60;;
64405;SDS011;50730;48.628;8.994;2023-09-18T11:45:45;1.83;;;0.70;;
64405;SDS011;50730;48.628;8.994;2023-09-18T11:48:16;3.33;;;0.90;;
64405;SDS011;50730;48.628;8.994;2023-09-18T11:50:43;1.55;;;0.60;;
64405;SDS011;50730;48.628;8.994;2023-09-18T11:53:11;1.65;;;0.70;;
64405;SDS011;50730;48.628;8.994;2023-09-18T11:55:39;2.70;;;1.00;;
64405;SDS011;50730;48.628;8.994;2023-09-18T11:58:06;3.22;;;1.13;;
64405;SDS011;50730;48.628;8.994;2023-09-18T12:00:34;4.63;;;0.93;;
64405;SDS011;50730;48.628;8.994;2023-09-18T12:03:15;3.00;;;0.85;;
64405;SDS011;50730;48.628;8.994;2023-09-18T12:05:51;2.05;;;0.65;;
64405;SDS011;50730;48.628;8.994;2023-09-18T12:08:18;4.53;;;1.50;;
64405;SDS011;50730;48.628;8.994;2023-09-18T12:10:47;2.78;;;0.50;;
64405;SDS011;50730;48.628;8.994;2023-09-18T12:13:15;3.25;;;1.00;;
64405;SDS011;50730;48.628;8.994;2023-09-18T12:15:42;4.85;;;0.85;;
64405;SDS011;50730;48.628;8.994;2023-09-18T12:18:09;1.33;;;0.70;;
64405;SDS011;50730;48.628;8.994;2023-09-18T12:20:43;2.17;;;0.65;;
64405;SDS011;50730;48.628;8.994;2023-09-18T12:23:11;3.05;;;0.90;;
64405;SDS011;50730;48.628;8.994;2023-09-18T12:25:38;1.83;;;0.90;;
64405;SDS011;50730;48.628;8.994;2023-09-18T12:28:06;3.22;;;0.75;;
64405;SDS011;50730;48.628;8.994;2023-09-18T12:30:33;1.88;;;0.57;;
64405;SDS011;50730;48.628;8.994;2023-09-18T12:33:00;2.10;;;0.60;;
64405;SDS011;50730;48.628;8.994;2023-09-18T12:35:29;1.00;;;0.70;;
64405;SDS011;50730;48.628;8.994;2023-09-18T12:37:57;1.25;;;0.70;;
64405;SDS011;50730;48.628;8.994;2023-09-18T12:40:26;11.27;;;1.88;;
64405;SDS011;50730;48.628;8.994;2023-09-18T12:42:54;2.47;;;0.60;;
64405;SDS011;50730;48.628;8.994;2023-09-18T12:45:21;1.05;;;0.50;;
64405;SDS011;50730;48.628;8.994;2023-09-18T12:47:48;3.28;;;0.65;;
64405;SDS011;50730;48.628;8.994;2023-09-18T12:50:16;1.42;;;0.60;;
64405;SDS011;50730;48.628;8.994;2023-09-18T12:52:43;1.70;;;0.55;;
64405;SDS011;50730;48.628;8.994;2023-09-18T12:55:21;2.58;;;0.82;;
64405;SDS011;50730;48.628;8.994;2023-09-18T12:57:49;4.40;;;1.10;;
64405;SDS011;50730;48.628;8.994;2023-09-18T13:00:17;1.10;;;0.60;;
64405;SDS011;50730;48.628;8.994;2023-09-18T13:02:46;2.55;;;0.68;;
64405;SDS011;50730;48.628;8.994;2023-09-18T13:05:18;2.67;;;0.80;;
64405;SDS011;50730;48.628;8.994;2023-09-18T13:07:45;3.60;;;0.80;;
64405;SDS011;50730;48.628;8.994;2023-09-18T13:10:13;2.97;;;0.65;;
64405;SDS011;50730;48.628;8.994;2023-09-18T13:12:43;2.30;;;0.82;;
64405;SDS011;50730;48.628;8.994;2023-09-18T13:15:12;1.38;;;0.70;;
64405;SDS011;50730;48.628;8.994;2023-09-18T13:17:40;3.75;;;0.80;;
64405;SDS011;50730;48.628;8.994;2023-09-18T13:20:10;2.67;;;0.80;;
64405;SDS011;50730;48.628;8.994;2023-09-18T13:22:38;2.60;;;0.80;;
64405;SDS011;50730;48.628;8.994;2023-09-18T13:25:06;2.10;;;0.60;;
64405;SDS011;50730;48.628;8.994;2023-09-18T13:27:33;0.93;;;0.40;;
64405;SDS011;50730;48.628;8.994;2023-09-18T13:30:02;0.95;;;0.47;;
64405;SDS011;50730;48.628;8.994;2023-09-18T13:32:32;1.33;;;0.82;;
64405;SDS011;50730;48.628;8.994;2023-09-18T13:34:59;2.35;;;0.70;;
64405;SDS011;50730;48.628;8.994;2023-09-18T13:37:26;5.38;;;0.90;;
64405;SDS011;50730;48.628;8.994;2023-09-18T13:39:54;1.70;;;0.68;;
64405;SDS011;50730;48.628;8.994;2023-09-18T13:42:21;3.20;;;0.82;;
64405;SDS011;50730;48.628;8.994;2023-09-18T13:44:49;1.23;;;0.55;;
64405;SDS011;50730;48.628;8.994;2023-09-18T13:47:18;1.77;;;0.70;;
64405;SDS011;50730;48.628;8.994;2023-09-18T13:49:45;2.30;;;1.08;;
64405;SDS011;50730;48.628;8.994;2023-09-18T13:52:12;1.95;;;0.63;;
64405;SDS011;50730;48.628;8.994;2023-09-18T13:54:41;2.75;;;0.60;;
64405;SDS011;50730;48.628;8.994;2023-09-18T13:57:08;1.67;;;0.57;;
64405;SDS011;50730;48.628;8.994;2023-09-18T13:59:35;4.35;;;0.60;;
64405;SDS011;50730;48.628;8.994;2023-09-18T14:02:03;3.15;;;0.60;;
64405;SDS011;50730;48.628;8.994;2023-09-18T14:04:31;3.05;;;0.57;;
64405;SDS011;50730;48.628;8.994;2023-09-18T14:06:59;2.95;;;0.60;;
64405;SDS011;50730;48.628;8.994;2023-09-18T14:09:27;2.40;;;0.65;;
64405;SDS011;50730;48.628;8.994;2023-09-18T14:11:55;1.60;;;0.65;;
64405;SDS011;50730;48.628;8.994;2023-09-18T14:14:22;1.45;;;0.57;;
64405;SDS011;50730;48.628;8.994;2023-09-18T14:16:50;1.08;;;0.55;;
64405;SDS011;50730;48.628;8.994;2023-09-18T14:19:18;2.53;;;0.52;;
64405;SDS011;50730;48.628;8.994;2023-09-18T14:21:47;5.13;;;0.80;;
64405;SDS011;50730;48.628;8.994;2023-09-18T14:24:14;1.17;;;0.70;;
64405;SDS011;50730;48.628;8.994;2023-09-18T14:26:43;1.40;;;0.55;;
64405;SDS011;50730;48.628;8.994;2023-09-18T14:29:11;0.93;;;0.40;;
64405;SDS011;50730;48.628;8.994;2023-09-18T14:31:38;2.20;;;0.80;;
64405;SDS011;50730;48.628;8.994;2023-09-18T14:34:05;1.95;;;0.85;;
64405;SDS011;50730;48.628;8.994;2023-09-18T14:36:33;1.45;;;0.60;;
64405;SDS011;50730;48.628;8.994;2023-09-18T14:39:02;1.70;;;0.60;;
64405;SDS011;50730;48.628;8.994;2023-09-18T14:41:29;2.80;;;0.80;;
64405;SDS011;50730;48.628;8.994;2023-09-18T14:43:57;2.05;;;0.63;;
64405;SDS011;50730;48.628;8.994;2023-09-18T14:46:24;1.40;;;0.50;;
64405;SDS011;50730;48.628;8.994;2023-09-18T14:48:51;1.02;;;0.57;;
64405;SDS011;50730;48.628;8.994;2023-09-18T14:51:19;2.45;;;0.68;;
64405;SDS011;50730;48.628;8.994;2023-09-18T14:53:46;2.40;;;0.50;;
64405;SDS011;50730;48.628;8.994;2023-09-18T14:56:14;2.60;;;0.52;;
64405;SDS011;50730;48.628;8.994;2023-09-18T14:58:41;2.10;;;0.73;;
64405;SDS011;50730;48.628;8.994;2023-09-18T15:01:09;2.15;;;0.70;;
64405;SDS011;50730;48.628;8.994;2023-09-18T15:03:37;2.67;;;0.70;;
64405;SDS011;50730;48.628;8.994;2023-09-18T15:06:04;1.20;;;0.60;;
64405;SDS011;50730;48.628;8.994;2023-09-18T15:08:32;2.05;;;0.57;;
64405;SDS011;50730;48.628;8.994;2023-09-18T15:10:59;3.28;;;1.20;;
64405;SDS011;50730;48.628;8.994;2023-09-18T15:13:29;2.35;;;0.70;;
64405;SDS011;50730;48.628;8.994;2023-09-18T15:15:56;2.60;;;0.60;;
64405;SDS011;50730;48.628;8.994;2023-09-18T15:18:23;2.13;;;0.90;;
64405;SDS011;50730;48.628;8.994;2023-09-18T15:20:50;3.17;;;0.73;;
64405;SDS011;50730;48.628;8.994;2023-09-18T15:23:19;0.60;;;0.60;;
64405;SDS011;50730;48.628;8.994;2023-09-18T15:25:48;1.48;;;0.40;;
64405;SDS011;50730;48.628;8.994;2023-09-18T15:28:15;1.75;;;0.50;;
64405;SDS011;50730;48.628;8.994;2023-09-18T15:30:44;3.80;;;0.60;;
64405;SDS011;50730;48.628;8.994;2023-09-18T15:33:12;1.50;;;0.50;;
64405;SDS011;50730;48.628;8.994;2023-09-18T15:35:41;3.45;;;0.88;;
64405;SDS011;50730;48.628;8.994;2023-09-18T15:38:08;1.23;;;0.40;;
64405;SDS011;50730;48.628;8.994;2023-09-18T15:40:35;3.78;;;0.60;;
64405;SDS011;50730;48.628;8.994;2023-09-18T15:43:03;0.88;;;0.50;;
64405;SDS011;50730;48.628;8.994;2023-09-18T15:45:30;1.75;;;0.75;;
64405;SDS011;50730;48.628;8.994;2023-09-18T15:48:01;5.15;;;0.60;;
64405;SDS011;50730;48.628;8.994;2023-09-18T15:50:29;1.90;;;0.60;;
64405;SDS011;50730;48.628;8.994;2023-09-18T15:52:56;1.80;;;0.50;;
64405;SDS011;50730;48.628;8.994;2023-09-18T15:55:23;0.80;;;0.57;;
64405;SDS011;50730;48.628;8.994;2023-09-18T15:57:51;2.08;;;0.57;;
64405;SDS011;50730;48.628;8.994;2023-09-18T16:00:18;2.10;;;0.57;;
64405;SDS011;50730;48.628;8.994;2023-09-18T16:02:46;2.00;;;0.70;;
64405;SDS011;50730;48.628;8.994;2023-09-18T16:05:16;0.70;;;0.47;;
64405;SDS011;50730;48.628;8.994;2023-09-18T16:10:17;1.73;;;0.60;;
64405;SDS011;50730;48.628;8.994;2023-09-18T16:12:44;1.73;;;0.65;;
64405;SDS011;50730;48.628;8.994;2023-09-18T16:15:12;1.40;;;0.50;;
64405;SDS011;50730;48.628;8.994;2023-09-18T16:17:39;2.63;;;0.90;;
64405;SDS011;50730;48.628;8.994;2023-09-18T16:20:06;2.72;;;0.93;;
64405;SDS011;50730;48.628;8.994;2023-09-18T16:22:36;2.67;;;0.80;;
64405;SDS011;50730;48.628;8.994;2023-09-18T16:25:05;2.67;;;0.73;;
64405;SDS011;50730;48.628;8.994;2023-09-18T16:27:33;3.67;;;0.70;;
64405;SDS011;50730;48.628;8.994;2023-09-18T16:30:00;3.22;;;0.80;;
64405;SDS011;50730;48.628;8.994;2023-09-18T16:32:29;1.83;;;0.77;;
64405;SDS011;50730;48.628;8.994;2023-09-18T16:34:56;2.55;;;0.75;;
64405;SDS011;50730;48.628;8.994;2023-09-18T16:37:26;2.42;;;0.75;;
64405;SDS011;50730;48.628;8.994;2023-09-18T16:39:54;2.55;;;0.77;;
64405;SDS011;50730;48.628;8.994;2023-09-18T16:42:20;5.47;;;1.02;;
64405;SDS011;50730;48.628;8.994;2023-09-18T16:44:47;1.95;;;0.60;;
64405;SDS011;50730;48.628;8.994;2023-09-18T16:47:14;4.07;;;0.88;;
64405;SDS011;50730;48.628;8.994;2023-09-18T16:49:43;2.88;;;0.80;;
64405;SDS011;50730;48.628;8.994;2023-09-18T16:52:11;2.30;;;0.73;;
64405;SDS011;50730;48.628;8.994;2023-09-18T16:54:38;3.72;;;0.93;;
64405;SDS011;50730;48.628;8.994;2023-09-18T16:57:08;1.52;;;0.75;;
64405;SDS011;50730;48.628;8.994;2023-09-18T16:59:37;2.92;;;1.10;;
64405;SDS011;50730;48.628;8.994;2023-09-18T17:02:05;1.73;;;0.98;;
64405;SDS011;50730;48.628;8.994;2023-09-18T17:04:33;1.67;;;0.88;;
64405;SDS011;50730;48.628;8.994;2023-09-18T17:07:05;3.92;;;0.95;;
64405;SDS011;50730;48.628;8.994;2023-09-18T17:09:33;1.83;;;0.70;;
64405;SDS011;50730;48.628;8.994;2023-09-18T17:12:00;2.28;;;0.93;;
64405;SDS011;50730;48.628;8.994;2023-09-18T17:14:29;5.25;;;1.35;;
64405;SDS011;50730;48.628;8.994;2023-09-18T17:16:56;2.30;;;0.90;;
64405;SDS011;50730;48.628;8.994;2023-09-18T17:19:23;2.90;;;0.80;;
64405;SDS011;50730;48.628;8.994;2023-09-18T17:21:50;3.08;;;0.95;;
64405;SDS011;50730;48.628;8.994;2023-09-18T17:24:17;3.33;;;0.88;;
64405;SDS011;50730;48.628;8.994;2023-09-18T17:26:44;2.33;;;0.90;;
64405;SDS011;50730;48.628;8.994;2023-09-18T17:29:12;3.03;;;1.15;;
64405;SDS011;50730;48.628;8.994;2023-09-18T17:31:40;2.45;;;0.90;;
64405;SDS011;50730;48.628;8.994;2023-09-18T17:34:08;2.78;;;1.08;;
64405;SDS011;50730;48.628;8.994;2023-09-18T17:36:36;1.77;;;0.80;;
64405;SDS011;50730;48.628;8.994;2023-09-18T17:39:04;1.45;;;0.80;;
64405;SDS011;50730;48.628;8.994;2023-09-18T17:41:33;1.73;;;0.93;;
64405;SDS011;50730;48.628;8.994;2023-09-18T17:44:00;4.03;;;1.20;;
64405;SDS011;50730;48.628;8.994;2023-09-18T17:46:28;5.13;;;1.10;;
64405;SDS011;50730;48.628;8.994;2023-09-18T17:48:56;2.83;;;1.02;;
64405;SDS011;50730;48.628;8.994;2023-09-18T17:51:24;1.85;;;0.98;;
64405;SDS011;50730;48.628;8.994;2023-09-18T17:53:51;2.22;;;1.00;;
64405;SDS011;50730;48.628;8.994;2023-09-18T17:56:18;2.78;;;0.90;;
64405;SDS011;50730;48.628;8.994;2023-09-18T17:58:45;5.05;;;1.05;;
64405;SDS011;50730;48.628;8.994;2023-09-18T18:01:12;3.25;;;0.95;;
64405;SDS011;50730;48.628;8.994;2023-09-18T18:03:40;3.25;;;1.10;;
64405;SDS011;50730;48.628;8.994;2023-09-18T18:06:09;4.38;;;1.20;;
64405;SDS011;50730;48.628;8.994;2023-09-18T18:08:36;2.35;;;1.13;;
64405;SDS011;50730;48.628;8.994;2023-09-18T18:11:03;3.60;;;0.90;;
64405;SDS011;50730;48.628;8.994;2023-09-18T18:13:31;2.28;;;1.08;;
64405;SDS011;50730;48.628;8.994;2023-09-18T18:15:58;3.05;;;0.90;;
64405;SDS011;50730;48.628;8.994;2023-09-18T18:18:25;3.22;;;1.05;;
64405;SDS011;50730;48.628;8.994;2023-09-18T18:20:54;4.05;;;1.10;;
64405;SDS011;50730;48.628;8.994;2023-09-18T18:23:23;2.58;;;1.00;;
64405;SDS011;50730;48.628;8.994;2023-09-18T18:25:50;2.65;;;1.00;;
64405;SDS011;50730;48.628;8.994;2023-09-18T18:28:18;3.33;;;0.98;;
64405;SDS011;50730;48.628;8.994;2023-09-18T18:30:47;2.30;;;1.00;;
64405;SDS011;50730;48.628;8.994;2023-09-18T18:33:15;2.08;;;1.00;;
64405;SDS011;50730;48.628;8.994;2023-09-18T18:35:42;5.78;;;1.05;;
64405;SDS011;50730;48.628;8.994;2023-09-18T18:38:11;2.08;;;0.93;;
64405;SDS011;50730;48.628;8.994;2023-09-18T18:40:40;3.42;;;1.13;;
64405;SDS011;50730;48.628;8.994;2023-09-18T18:43:09;2.95;;;1.00;;
64405;SDS011;50730;48.628;8.994;2023-09-18T18:45:43;3.88;;;1.10;;
64405;SDS011;50730;48.628;8.994;2023-09-18T18:48:12;1.73;;;0.90;;
64405;SDS011;50730;48.628;8.994;2023-09-18T18:50:43;3.83;;;1.00;;
64405;SDS011;50730;48.628;8.994;2023-09-18T18:53:11;3.45;;;1.17;;
64405;SDS011;50730;48.628;8.994;2023-09-18T18:55:39;3.63;;;1.25;;
64405;SDS011;50730;48.628;8.994;2023-09-18T18:58:07;5.88;;;1.33;;
64405;SDS011;50730;48.628;8.994;2023-09-18T19:00:34;6.07;;;1.30;;
64405;SDS011;50730;48.628;8.994;2023-09-18T19:03:01;5.05;;;1.27;;
64405;SDS011;50730;48.628;8.994;2023-09-18T19:05:32;3.55;;;1.05;;
64405;SDS011;50730;48.628;8.994;2023-09-18T19:08:01;4.18;;;1.85;;
64405;SDS011;50730;48.628;8.994;2023-09-18T19:10:29;1.40;;;0.88;;
64405;SDS011;50730;48.628;8.994;2023-09-18T19:12:57;3.70;;;1.10;;
64405;SDS011;50730;48.628;8.994;2023-09-18T19:15:25;1.00;;;0.70;;